Time;durP1;ratioP1;P1;durP2;ratioP2;P2;SDS_P1;SDS_P2;PMS_P1;PMS_P2;Temp;Humidity;BMP_temperature;BMP_pressure;BME280_temperature;BME280_humidity;BME280_pressure;Samples;Min_cycle;Max_cycle;Signal;HPM_P1;HPM_P2
2022/10/26 00:00:22;;;;;;;4.22;1.50;;;;;;;19.65;48.03;101126.16;4974673;28;20066;-62
2022/10/26 00:02:48;;;;;;;3.00;1.60;;;;;;;19.67;48.09;101124.09;4958435;28;20420;-62
2022/10/26 00:05:13;;;;;;;4.30;1.98;;;;;;;19.67;48.41;101124.09;4958623;28;20034;-62
2022/10/26 00:07:38;;;;;;;2.42;2.10;;;;;;;19.66;48.05;101122.41;4975066;28;20034;-62
2022/10/26 00:10:04;;;;;;;5.68;2.20;;;;;;;19.65;48.05;101120.72;4958495;28;20047;-62
2022/10/26 00:12:29;;;;;;;7.47;1.75;;;;;;;19.64;48.58;101124.47;4990836;28;20035;-62
2022/10/26 00:14:55;;;;;;;2.17;1.55;;;;;;;19.67;48.84;101124.94;4958287;28;20039;-62
2022/10/26 00:17:20;;;;;;;8.10;1.42;;;;;;;19.66;48.43;101116.97;4974690;28;20177;-62
2022/10/26 00:19:45;;;;;;;2.40;1.08;;;;;;;19.65;48.37;101115.28;4958712;28;20036;-62
2022/10/26 00:22:11;;;;;;;3.33;1.40;;;;;;;19.64;48.70;101116.31;4975037;28;20436;-62
2022/10/26 00:24:36;;;;;;;4.63;1.33;;;;;;;19.62;48.37;101102.06;4957974;28;20037;-61
2022/10/26 00:27:02;;;;;;;3.83;1.73;;;;;;;19.62;48.94;101110.22;4958262;28;20038;-62
2022/10/26 00:29:27;;;;;;;2.20;1.20;;;;;;;19.60;48.44;101106.81;4975281;28;20121;-62
2022/10/26 00:31:52;;;;;;;7.50;1.27;;;;;;;19.60;48.36;101106.81;4958491;28;20034;-62
2022/10/26 00:34:18;;;;;;;2.78;1.27;;;;;;;19.63;48.23;101104.56;4957873;28;20119;-62
2022/10/26 00:36:43;;;;;;;4.18;1.65;;;;;;;19.63;48.38;101106.44;4974060;28;20047;-62
2022/10/26 00:39:11;;;;;;;13.23;1.73;;;;;;;19.62;48.25;101104.78;4975247;28;20046;-61
2022/10/26 00:41:37;;;;;;;4.10;1.25;;;;;;;19.61;48.66;101108.50;4973747;28;20162;-63
2022/10/26 00:44:40;;;;;;;2.25;1.10;;;;;;;19.60;48.81;101106.81;4957764;28;20056;-62
2022/10/26 00:47:09;;;;;;;3.75;1.50;;;;;;;19.58;48.30;101108.88;4974931;28;20030;-62
2022/10/26 00:49:34;;;;;;;3.65;1.67;;;;;;;19.58;48.22;101108.88;4974317;28;20030;-62
2022/10/26 00:52:00;;;;;;;8.07;1.70;;;;;;;19.58;48.50;101103.44;4973828;28;20073;-62
2022/10/26 00:54:25;;;;;;;1.77;1.25;;;;;;;19.54;48.26;101091.25;4957563;28;20623;-62
2022/10/26 00:56:52;;;;;;;4.60;1.40;;;;;;;19.57;49.02;101097.16;4973597;28;20042;-62
2022/10/26 00:59:17;;;;;;;3.08;1.20;;;;;;;19.57;48.28;101086.28;4957668;28;20425;-62
2022/10/26 01:01:44;;;;;;;6.30;1.55;;;;;;;19.59;48.92;101099.69;4975293;28;20101;-62
2022/10/26 01:04:11;;;;;;;3.00;1.00;;;;;;;19.58;49.12;101084.41;4973603;28;20162;-62
2022/10/26 01:06:37;;;;;;;12.30;1.90;;;;;;;19.61;48.80;101089.47;4973557;28;20054;-62
2022/10/26 01:09:03;;;;;;;1.40;1.10;;;;;;;19.61;49.00;101093.06;4973557;28;20113;-62
2022/10/26 01:11:29;;;;;;;6.20;1.40;;;;;;;19.62;48.43;101077.59;4973368;28;20121;-62
2022/10/26 01:13:55;;;;;;;3.78;1.05;;;;;;;19.63;49.00;101074.69;4973912;28;20493;-62
2022/10/26 01:16:42;;;;;;;1.50;1.08;;;;;;;19.64;49.17;101075.53;4974489;28;20031;-62
2022/10/26 01:19:28;;;;;;;3.65;2.72;;;;;;;19.66;48.40;101074.31;4973079;28;20058;-61
2022/10/26 01:22:04;;;;;;;4.40;1.17;;;;;;;19.67;48.99;101065.16;4972537;28;20035;-62
2022/10/26 01:24:38;;;;;;;2.47;1.20;;;;;;;19.69;48.98;101062.25;4956919;28;20515;-62
2022/10/26 01:27:11;;;;;;;3.38;1.33;;;;;;;19.67;48.82;101059.72;4974372;28;20042;-62
2022/10/26 01:29:49;;;;;;;3.30;0.88;;;;;;;19.71;48.67;101061.03;4974385;28;20031;-62
2022/10/26 01:32:26;;;;;;;3.05;1.10;;;;;;;19.73;48.26;101066.28;4956123;28;20037;-62
2022/10/26 01:35:08;;;;;;;3.65;0.77;;;;;;;19.73;48.96;101058.13;4957370;28;20420;-62
2022/10/26 01:37:37;;;;;;;1.25;0.85;;;;;;;19.74;48.87;101055.22;4992563;28;20080;-62
2022/10/26 01:40:11;;;;;;;3.72;0.68;;;;;;;19.76;49.09;101052.34;4992389;28;20085;-62
2022/10/26 01:42:41;;;;;;;3.08;0.90;;;;;;;19.77;49.03;101054.00;4979144;28;20572;-62
2022/10/26 01:45:08;;;;;;;2.10;0.93;;;;;;;19.74;48.64;101041.63;4972914;28;20049;-62
2022/10/26 01:47:35;;;;;;;3.40;1.55;;;;;;;19.76;49.33;101036.03;4968720;28;20046;-62
2022/10/26 01:50:02;;;;;;;6.32;1.08;;;;;;;19.75;48.69;101029.75;4953520;28;20031;-62
2022/10/26 01:52:27;;;;;;;3.88;1.13;;;;;;;19.79;49.17;101037.53;4956893;28;20023;-62
2022/10/26 01:55:03;;;;;;;2.00;0.95;;;;;;;19.82;49.21;101035.25;4956633;28;20086;-62
2022/10/26 01:57:32;;;;;;;1.15;1.05;;;;;;;19.82;49.19;101035.25;4956585;28;20124;-62
2022/10/26 02:00:08;;;;;;;3.17;1.88;;;;;;;19.83;49.09;101025.25;4973899;28;20107;-62
2022/10/26 02:02:46;;;;;;;4.22;1.23;;;;;;;19.84;49.01;101027.78;4972539;28;20031;-62
2022/10/26 02:06:01;;;;;;;12.15;0.95;;;;;;;19.84;48.82;101019.63;4973658;28;20031;-62
2022/10/26 02:08:53;;;;;;;2.03;0.88;;;;;;;19.84;49.38;101018.78;4958767;28;20042;-62
2022/10/26 02:11:36;;;;;;;2.55;1.65;;;;;;;19.83;48.64;101012.50;4972411;28;20030;-63
2022/10/26 02:14:01;;;;;;;3.80;0.90;;;;;;;19.84;49.45;101011.47;4972307;28;20027;-62
2022/10/26 02:16:37;;;;;;;2.65;0.82;;;;;;;19.85;49.36;101018.59;4972611;28;20113;-63
2022/10/26 02:19:29;;;;;;;4.97;0.95;;;;;;;19.86;49.34;101017.56;4956008;28;20039;-62
2022/10/26 02:22:01;;;;;;;3.35;0.82;;;;;;;19.86;49.05;101009.41;4963028;28;20038;-62
2022/10/26 02:24:27;;;;;;;3.88;1.10;;;;;;;19.88;49.34;101011.97;4972222;28;20039;-62
2022/10/26 02:26:55;;;;;;;5.05;1.35;;;;;;;19.89;48.93;101009.03;4972101;28;20440;-62
2022/10/26 02:29:22;;;;;;;1.35;1.08;;;;;;;19.89;49.10;101005.47;4972091;28;20104;-62
2022/10/26 02:31:48;;;;;;;3.78;0.95;;;;;;;19.90;49.42;101008.03;4972547;28;20023;-62
2022/10/26 02:34:17;;;;;;;2.40;1.08;;;;;;;19.92;49.20;101002.38;4972061;28;20065;-62
2022/10/26 02:36:44;;;;;;;2.75;1.10;;;;;;;19.93;49.65;101002.22;4971949;28;20047;-62
2022/10/26 02:39:11;;;;;;;3.22;0.93;;;;;;;19.97;49.21;101008.97;4973331;28;20530;-62
2022/10/26 02:41:38;;;;;;;2.38;0.85;;;;;;;19.96;49.24;100999.09;4955755;28;20404;-62
2022/10/26 02:44:31;;;;;;;5.28;0.88;;;;;;;19.97;49.27;101011.69;4988468;28;20033;-62
2022/10/26 02:46:57;;;;;;;3.67;1.58;;;;;;;19.99;49.31;101004.16;4987991;28;20034;-62
2022/10/26 02:49:22;;;;;;;1.58;1.05;;;;;;;19.97;49.44;101000.81;4991266;28;20460;-62
2022/10/26 02:51:58;;;;;;;1.10;0.82;;;;;;;20.00;49.08;100992.28;4991352;28;20054;-62
2022/10/26 02:54:26;;;;;;;4.45;1.10;;;;;;;20.01;50.01;100996.69;4975216;28;20443;-63
2022/10/26 02:56:55;;;;;;;4.88;0.90;;;;;;;20.01;48.93;100991.25;4991188;28;20039;-62
2022/10/26 02:59:22;;;;;;;4.68;1.88;;;;;;;20.03;49.26;100994.63;4991245;28;20125;-62
2022/10/26 03:01:49;;;;;;;1.92;1.00;;;;;;;19.99;49.91;100979.69;4975582;28;20449;-62
2022/10/26 03:04:15;;;;;;;2.25;0.82;;;;;;;20.03;49.56;100982.88;4990893;28;20507;-62
2022/10/26 03:06:40;;;;;;;1.25;0.85;;;;;;;20.03;49.37;100982.88;4991136;28;20031;-62
2022/10/26 03:09:05;;;;;;;4.18;0.80;;;;;;;20.02;49.47;100987.47;4991106;28;20042;-62
2022/10/26 03:11:31;;;;;;;2.92;0.80;;;;;;;20.01;49.38;100985.81;4992257;28;20125;-62
2022/10/26 03:13:56;;;;;;;2.72;1.05;;;;;;;20.02;49.55;100982.03;4975336;28;20022;-63
2022/10/26 03:16:22;;;;;;;5.55;1.10;;;;;;;20.02;49.45;100987.47;4990988;28;20058;-62
2022/10/26 03:18:47;;;;;;;1.92;0.77;;;;;;;20.01;49.78;100980.38;4991089;28;20113;-62
2022/10/26 03:21:12;;;;;;;2.42;1.20;;;;;;;20.02;49.32;100984.75;4991081;28;20035;-62
2022/10/26 03:23:38;;;;;;;3.08;0.70;;;;;;;20.04;49.26;100988.16;4974632;28;20089;-62
2022/10/26 03:26:03;;;;;;;5.50;0.88;;;;;;;20.00;49.99;100981.41;4991820;28;20134;-62
2022/10/26 03:28:28;;;;;;;3.78;0.90;;;;;;;20.03;49.46;100978.31;4939863;28;20523;-62
2022/10/26 03:30:54;;;;;;;1.05;0.80;;;;;;;20.00;49.28;100975.97;4955532;28;20042;-62
2022/10/26 03:33:19;;;;;;;1.55;1.00;;;;;;;20.03;49.50;100978.31;4971447;28;20077;-62
2022/10/26 03:35:44;;;;;;;2.67;0.80;;;;;;;20.02;49.70;100982.03;4972779;28;20058;-63
2022/10/26 03:38:10;;;;;;;1.98;0.70;;;;;;;20.03;49.49;100982.88;4973032;28;20419;-62
2022/10/26 03:40:35;;;;;;;2.50;0.95;;;;;;;20.04;49.44;100979.16;4955752;28;20031;-62
2022/10/26 03:43:02;;;;;;;5.40;1.10;;;;;;;20.05;49.71;100976.22;4968046;28;20051;-62
2022/10/26 03:45:27;;;;;;;2.08;1.15;;;;;;;20.06;49.36;100969.78;4972590;28;20479;-62
2022/10/26 03:47:53;;;;;;;1.52;0.68;;;;;;;20.04;49.49;100974.56;4972629;28;20038;-62
2022/10/26 03:50:20;;;;;;;3.60;1.00;;;;;;;20.07;49.55;100979.59;4955273;28;20412;-62
2022/10/26 03:52:47;;;;;;;0.82;0.50;;;;;;;20.07;49.38;100976.06;4971846;28;20645;-62
2022/10/26 03:55:12;;;;;;;2.17;0.80;;;;;;;20.10;49.67;100973.78;4971508;28;20035;-62
2022/10/26 03:57:44;;;;;;;4.30;1.25;;;;;;;20.11;49.58;100988.25;4974811;28;20433;-62
2022/10/26 04:00:11;;;;;;;5.80;0.90;;;;;;;20.10;49.43;100973.78;4974827;28;20455;-62
2022/10/26 04:02:36;;;;;;;1.10;0.80;;;;;;;20.10;48.95;100968.34;4960070;28;20528;-62
2022/10/26 04:05:02;;;;;;;2.78;1.20;;;;;;;20.10;49.89;100976.50;4958812;28;20033;-62
2022/10/26 04:07:27;;;;;;;2.53;0.80;;;;;;;20.09;50.09;100961.25;4975112;28;20026;-62
2022/10/26 04:09:52;;;;;;;5.47;1.27;;;;;;;20.10;50.17;100962.91;4958623;28;20054;-62
2022/10/26 04:12:18;;;;;;;1.85;1.13;;;;;;;20.11;49.58;100975.50;4974438;28;20448;-62
2022/10/26 04:14:43;;;;;;;6.47;0.90;;;;;;;20.09;49.36;100965.84;4975761;28;20069;-62
2022/10/26 04:17:08;;;;;;;4.15;1.00;;;;;;;20.10;49.55;100971.06;4958259;28;20030;-62
2022/10/26 04:19:34;;;;;;;4.75;0.98;;;;;;;20.12;49.85;100970.91;4976042;28;20081;-62
2022/10/26 04:21:59;;;;;;;3.85;1.40;;;;;;;20.13;49.61;100973.41;4975657;28;20035;-61
2022/10/26 04:24:24;;;;;;;5.80;1.00;;;;;;;20.14;49.96;100974.28;4975597;28;20050;-62
2022/10/26 04:26:50;;;;;;;3.03;1.00;;;;;;;20.15;50.06;100970.53;4961509;28;20492;-62
2022/10/26 04:29:15;;;;;;;3.58;0.90;;;;;;;20.16;49.78;100969.47;4974221;28;20035;-62
2022/10/26 04:31:41;;;;;;;1.63;1.10;;;;;;;20.19;49.92;100975.41;4974557;28;20026;-62
2022/10/26 04:34:06;;;;;;;5.03;1.10;;;;;;;20.21;49.42;100970.59;4974235;28;20031;-62
2022/10/26 04:36:32;;;;;;;7.53;1.02;;;;;;;20.22;49.80;100964.13;4974036;28;20388;-62
2022/10/26 04:38:57;;;;;;;3.85;0.80;;;;;;;20.22;49.47;100966.84;4974058;28;20094;-62
2022/10/26 04:41:22;;;;;;;0.93;0.70;;;;;;;20.24;49.97;100970.25;4974036;28;20043;-62
2022/10/26 04:43:48;;;;;;;4.35;1.05;;;;;;;20.24;49.54;100972.09;4974209;28;20027;-62
2022/10/26 04:46:13;;;;;;;9.02;0.98;;;;;;;20.25;49.64;100971.97;4975179;28;20043;-62
2022/10/26 04:48:39;;;;;;;2.83;0.90;;;;;;;20.24;49.46;100970.25;4975199;28;20035;-64
2022/10/26 04:51:04;;;;;;;2.83;0.70;;;;;;;20.26;49.74;100973.66;4973764;28;20038;-62
2022/10/26 04:53:30;;;;;;;3.58;1.05;;;;;;;20.25;49.54;100971.09;4974958;28;20097;-62
2022/10/26 04:55:56;;;;;;;5.13;0.88;;;;;;;20.26;49.56;100979.09;4958051;28;20037;-62
2022/10/26 04:58:22;;;;;;;2.22;0.80;;;;;;;20.26;50.05;100978.25;4974826;28;20081;-62
2022/10/26 05:00:47;;;;;;;7.05;0.95;;;;;;;20.26;50.04;100976.38;4974895;28;20110;-62
2022/10/26 05:03:13;;;;;;;1.63;0.80;;;;;;;20.28;50.21;100976.19;4973437;28;20065;-62
2022/10/26 05:05:38;;;;;;;8.77;0.95;;;;;;;20.31;49.94;100978.53;4973581;28;20081;-62
2022/10/26 05:08:04;;;;;;;8.02;0.88;;;;;;;20.32;50.44;100977.50;4973438;28;20110;-62
2022/10/26 05:10:29;;;;;;;2.85;0.90;;;;;;;20.32;49.99;100977.50;4957736;28;20035;-62
2022/10/26 05:12:56;;;;;;;3.28;0.80;;;;;;;20.32;50.06;100983.75;4973447;28;20039;-62
2022/10/26 05:15:21;;;;;;;1.65;0.98;;;;;;;20.33;49.63;100982.75;4973367;28;20039;-62
2022/10/26 05:17:54;;;;;;;3.60;0.93;;;;;;;20.34;50.49;100986.31;4973473;28;20030;-62
2022/10/26 05:20:19;;;;;;;6.25;1.65;;;;;;;20.37;49.93;100985.09;4973357;28;20539;-62
2022/10/26 05:22:51;;;;;;;2.88;0.75;;;;;;;20.37;49.98;100977.78;4957647;28;20046;-62
2022/10/26 05:25:17;;;;;;;1.02;0.80;;;;;;;20.38;49.93;100987.59;4973286;28;20121;-62
2022/10/26 05:27:42;;;;;;;4.07;0.70;;;;;;;20.37;49.56;100983.22;4973055;28;20130;-62
2022/10/26 05:30:08;;;;;;;1.75;1.10;;;;;;;20.37;49.70;100993.25;4962634;28;20492;-62
2022/10/26 05:32:33;;;;;;;2.92;1.05;;;;;;;20.39;50.38;100988.44;4973183;28;20462;-62
2022/10/26 05:34:59;;;;;;;3.33;0.82;;;;;;;20.38;49.59;100998.50;4974599;28;20440;-62
2022/10/26 05:37:27;;;;;;;5.90;1.02;;;;;;;20.39;50.36;100999.34;4974268;28;20078;-62
2022/10/26 05:39:53;;;;;;;3.33;1.25;;;;;;;20.39;49.83;100994.75;4987813;28;20035;-62
2022/10/26 05:42:19;;;;;;;2.13;0.77;;;;;;;20.39;50.20;101002.91;4981595;28;20054;-62
2022/10/26 05:44:45;;;;;;;2.42;0.93;;;;;;;20.41;50.19;101005.47;4956708;28;20050;-62
2022/10/26 05:47:10;;;;;;;4.43;1.42;;;;;;;20.42;49.90;101007.13;4948957;28;20027;-62
2022/10/26 05:49:35;;;;;;;6.60;0.98;;;;;;;20.42;50.39;101001.69;4948042;28;20015;-62
2022/10/26 05:52:01;;;;;;;1.75;0.90;;;;;;;20.43;49.83;100997.94;4970870;28;20082;-62
2022/10/26 05:54:26;;;;;;;2.33;1.00;;;;;;;20.44;50.14;100996.88;4941408;28;20125;-62
2022/10/26 05:56:51;;;;;;;4.68;1.05;;;;;;;20.43;49.96;100993.34;4973392;28;20524;-62
2022/10/26 05:59:17;;;;;;;1.88;0.63;;;;;;;20.40;49.79;100998.31;4957361;28;20037;-62
2022/10/26 06:01:45;;;;;;;6.93;0.98;;;;;;;20.44;50.34;101007.78;4974098;28;20023;-62
2022/10/26 06:04:37;;;;;;;0.63;0.50;;;;;;;20.44;50.07;101002.34;4973314;28;20103;-62
2022/10/26 06:07:07;;;;;;;2.88;0.80;;;;;;;20.46;50.33;101005.72;4971529;28;20565;-61
2022/10/26 06:09:33;;;;;;;2.63;0.65;;;;;;;20.48;50.69;101011.81;4957250;28;20038;-62
2022/10/26 06:12:00;;;;;;;4.40;0.60;;;;;;;20.54;50.48;101017.38;4974731;28;20035;-62
2022/10/26 06:14:26;;;;;;;8.05;0.65;;;;;;;20.63;50.59;101010.75;4973372;28;20031;-62
2022/10/26 06:17:36;;;;;;;5.25;1.55;;;;;;;20.71;50.98;101005.22;4973518;28;20400;-62
2022/10/26 06:20:04;;;;;;;1.17;0.95;;;;;;;20.85;50.37;100996.16;4952627;28;20047;-62
2022/10/26 06:22:32;;;;;;;2.53;0.50;;;;;;;20.98;50.29;101006.38;4982217;28;20038;-62
2022/10/26 06:25:13;;;;;;;2.63;0.80;;;;;;;21.07;51.41;101016.16;4974189;28;20039;-62
2022/10/26 06:27:44;;;;;;;0.80;0.57;;;;;;;21.16;50.75;101017.69;4974445;28;20027;-61
2022/10/26 06:30:13;;;;;;;2.90;0.88;;;;;;;21.26;50.30;101020.97;4956912;28;20034;-62
2022/10/26 06:32:39;;;;;;;3.88;1.17;;;;;;;21.35;50.95;101021.69;4957319;28;20057;-62
2022/10/26 06:35:23;;;;;;;2.35;0.90;;;;;;;21.43;51.19;101037.91;4989078;28;20133;-62
2022/10/26 06:37:49;;;;;;;0.98;0.90;;;;;;;21.48;50.27;101033.56;4974885;28;20380;-62
2022/10/26 06:40:16;;;;;;;1.10;0.60;;;;;;;21.54;50.57;101033.81;4956849;28;20117;-62
2022/10/26 06:42:42;;;;;;;5.15;1.00;;;;;;;21.59;50.03;101042.25;4972709;28;20059;-61
2022/10/26 06:45:17;;;;;;;2.55;0.68;;;;;;;21.68;51.05;101038.34;4972696;28;20046;-61
2022/10/26 06:48:06;;;;;;;3.33;1.02;;;;;;;21.74;50.32;101040.31;4976062;28;20045;-61
2022/10/26 06:50:47;;;;;;;4.13;0.77;;;;;;;21.79;50.36;101037.81;4976066;28;20488;-61
2022/10/26 06:53:35;;;;;;;3.17;0.90;;;;;;;21.83;50.73;101044.59;4992217;28;20023;-61
2022/10/26 06:56:01;;;;;;;4.95;0.93;;;;;;;21.87;50.05;101035.84;4992141;28;20052;-61
2022/10/26 06:58:29;;;;;;;0.88;0.50;;;;;;;21.95;50.60;101037.56;4994074;28;20502;-61
2022/10/26 07:00:55;;;;;;;4.47;1.27;;;;;;;21.98;50.73;101028.97;4975972;28;20030;-62
2022/10/26 07:03:21;;;;;;;1.20;0.60;;;;;;;22.07;49.76;101030.53;4991992;28;20037;-61
2022/10/26 07:05:46;;;;;;;3.45;0.98;;;;;;;22.16;50.20;101017.56;4992297;28;20034;-62
2022/10/26 07:08:12;;;;;;;2.38;0.70;;;;;;;22.26;50.01;101013.44;4975996;28;20062;-63
2022/10/26 07:10:38;;;;;;;8.43;0.95;;;;;;;22.33;49.97;101014.34;4976367;28;20031;-62
2022/10/26 07:13:07;;;;;;;2.30;0.75;;;;;;;22.39;49.27;101012.69;4975804;28;20035;-62
2022/10/26 07:15:34;;;;;;;3.53;0.60;;;;;;;22.57;48.89;101011.09;4975858;28;20133;-62
2022/10/26 07:18:00;;;;;;;2.58;0.63;;;;;;;22.75;49.34;101017.94;4992016;28;20040;-62
2022/10/26 07:20:25;;;;;;;1.77;0.73;;;;;;;22.88;49.56;101045.31;4991865;28;20034;-62
2022/10/26 07:22:55;;;;;;;6.00;1.38;;;;;;;23.01;49.18;101050.81;4976008;28;20038;-62
2022/10/26 07:25:21;;;;;;;2.92;1.13;;;;;;;23.11;49.05;101056.75;4991993;28;20403;-62
2022/10/26 07:27:46;;;;;;;1.67;0.60;;;;;;;23.20;48.15;101061.81;4991946;28;20143;-62
2022/10/26 07:30:12;;;;;;;5.35;0.93;;;;;;;23.27;48.92;101064.56;4991997;28;20125;-62
2022/10/26 07:32:37;;;;;;;3.60;0.88;;;;;;;23.34;48.80;101070.88;4995743;28;20381;-63
2022/10/26 07:35:03;;;;;;;7.47;0.73;;;;;;;23.45;48.75;101070.31;4996821;28;20019;-64
2022/10/26 07:37:28;;;;;;;1.00;0.63;;;;;;;23.56;48.42;101064.22;4995867;28;20371;-63
2022/10/26 07:39:54;;;;;;;2.67;1.17;;;;;;;23.64;48.37;101077.75;4996769;28;20496;-64
2022/10/26 07:42:19;;;;;;;4.35;0.82;;;;;;;23.76;47.51;101065.09;4979117;28;20065;-64
2022/10/26 07:44:44;;;;;;;4.90;0.82;;;;;;;23.87;47.69;101065.56;4996724;28;20070;-63
2022/10/26 07:47:10;;;;;;;5.47;0.88;;;;;;;23.98;47.71;101070.41;4995198;28;20030;-64
2022/10/26 07:49:35;;;;;;;3.22;1.33;;;;;;;24.07;47.98;101077.31;4979567;28;20034;-64
2022/10/26 07:52:01;;;;;;;2.92;1.75;;;;;;;24.15;47.72;101072.50;5004834;28;20404;-64
2022/10/26 07:54:26;;;;;;;6.38;1.10;;;;;;;24.27;46.91;101075.44;4985554;28;20083;-64
2022/10/26 07:56:51;;;;;;;0.60;0.60;;;;;;;24.33;47.18;101080.94;4984528;28;20043;-64
2022/10/26 07:59:17;;;;;;;4.18;0.98;;;;;;;24.41;47.18;101081.75;4975552;28;20038;-64
2022/10/26 08:01:43;;;;;;;2.58;0.80;;;;;;;24.53;46.90;101112.91;4959983;28;20085;-65
2022/10/26 08:04:08;;;;;;;4.57;0.90;;;;;;;24.59;46.92;101121.13;4975640;28;20041;-63
2022/10/26 08:06:33;;;;;;;4.72;1.00;;;;;;;24.69;46.48;101121.53;4975556;28;20083;-64
2022/10/26 08:08:59;;;;;;;4.40;0.95;;;;;;;24.78;46.60;101097.47;4959500;28;20097;-64
2022/10/26 08:11:24;;;;;;;3.10;0.90;;;;;;;24.95;46.29;101108.84;4975417;28;20448;-64
2022/10/26 08:13:54;;;;;;;3.88;1.10;;;;;;;25.08;46.25;101127.97;4959629;28;20023;-64
2022/10/26 08:16:19;;;;;;;3.08;1.10;;;;;;;25.17;45.85;101132.16;4975426;28;20037;-64
2022/10/26 08:18:49;;;;;;;5.90;0.93;;;;;;;25.31;46.03;101128.31;4975470;28;20622;-64
2022/10/26 08:21:14;;;;;;;6.68;1.55;;;;;;;25.43;45.77;101126.56;4959418;28;20031;-64
2022/10/26 08:23:40;;;;;;;5.85;1.27;;;;;;;25.55;45.53;101135.81;4990440;28;20046;-64
2022/10/26 08:26:06;;;;;;;4.78;0.73;;;;;;;25.66;45.50;101135.09;4995954;28;20046;-64
2022/10/26 08:28:31;;;;;;;4.80;0.90;;;;;;;25.79;45.16;101132.28;4995119;28;20030;-64
2022/10/26 08:30:56;;;;;;;3.03;1.00;;;;;;;25.90;44.67;101137.06;4978345;28;20514;-64
2022/10/26 08:33:23;;;;;;;8.88;0.98;;;;;;;26.04;44.71;101135.91;4994568;28;20039;-63
2022/10/26 08:35:54;;;;;;;3.55;0.90;;;;;;;26.23;44.90;101141.50;4978556;28;20061;-63
2022/10/26 08:38:19;;;;;;;1.55;0.90;;;;;;;26.38;44.79;101148.31;4994661;28;20037;-64
2022/10/26 08:40:45;;;;;;;9.45;1.38;;;;;;;26.54;44.72;101147.78;4978689;28;20062;-64
2022/10/26 08:43:10;;;;;;;6.30;1.13;;;;;;;26.66;43.94;101158.88;4994840;28;20043;-63
2022/10/26 08:45:38;;;;;;;4.57;0.95;;;;;;;26.79;44.57;101150.50;4995431;28;20566;-63
2022/10/26 08:48:12;;;;;;;7.70;1.30;;;;;;;26.97;43.83;101152.41;4978018;28;20041;-63
2022/10/26 08:50:44;;;;;;;6.35;1.27;;;;;;;27.13;44.25;101158.19;4978105;28;20076;-64
2022/10/26 08:53:38;;;;;;;2.25;0.90;;;;;;;27.32;43.27;101158.16;4994177;28;20022;-64
2022/10/26 08:56:26;;;;;;;6.68;1.67;;;;;;;27.51;43.94;101154.31;4994013;28;20022;-64
2022/10/26 08:59:25;;;;;;;4.40;1.20;;;;;;;27.69;43.32;101146.84;4978165;28;20036;-63
2022/10/26 09:01:51;;;;;;;3.28;1.05;;;;;;;27.89;42.66;101145.75;4994113;28;20054;-64
2022/10/26 09:04:16;;;;;;;4.40;1.17;;;;;;;28.13;43.16;101153.03;4977753;28;20034;-64
2022/10/26 09:07:10;;;;;;;4.22;1.10;;;;;;;28.45;42.88;101151.63;4993899;28;20570;-62
2022/10/26 09:09:51;;;;;;;3.00;1.30;;;;;;;28.89;42.34;101148.28;4993851;28;20407;-64
2022/10/26 09:12:16;;;;;;;10.18;2.35;;;;;;;30.26;39.86;101154.66;4977458;28;20120;-65
2022/10/26 09:14:52;;;;;;;3.42;1.00;;;;;;;30.59;39.33;101164.91;4994954;28;20058;-64
2022/10/26 09:17:35;;;;;;;3.72;1.60;;;;;;;30.43;39.95;101163.81;4977450;28;20037;-64
2022/10/26 09:20:14;;;;;;;7.88;1.45;;;;;;;30.57;39.27;101173.44;4993454;28;20022;-65
2022/10/26 09:22:49;;;;;;;1.38;0.82;;;;;;;30.76;39.40;101170.41;4993970;28;20026;-65
2022/10/26 09:25:20;;;;;;;5.78;1.80;;;;;;;30.99;39.09;101175.78;4993526;28;20521;-65
2022/10/26 09:27:49;;;;;;;5.70;1.50;;;;;;;31.20;39.03;101172.19;4993486;28;20584;-64
2022/10/26 09:30:18;;;;;;;3.97;1.30;;;;;;;31.50;38.74;101183.69;4993550;28;20052;-64
2022/10/26 09:32:49;;;;;;;2.22;0.57;;;;;;;31.80;37.97;101183.19;4977105;28;20523;-64
2022/10/26 09:35:23;;;;;;;4.72;1.10;;;;;;;32.10;38.54;101188.25;4993377;28;20476;-64
2022/10/26 09:37:52;;;;;;;5.45;1.20;;;;;;;32.46;37.79;101195.78;4993752;28;20034;-64
2022/10/26 09:40:23;;;;;;;4.80;1.27;;;;;;;32.73;36.51;101210.47;4993303;28;20084;-64
2022/10/26 09:43:02;;;;;;;2.42;1.23;;;;;;;33.03;37.35;101209.00;4976848;28;20046;-64
2022/10/26 09:45:28;;;;;;;3.38;1.40;;;;;;;33.28;36.38;101211.94;4994382;28;20049;-64
2022/10/26 09:47:55;;;;;;;4.82;0.95;;;;;;;33.50;36.53;101207.06;4994374;28;20129;-66
2022/10/26 09:50:34;;;;;;;2.03;0.70;;;;;;;33.70;35.97;101212.69;4993213;28;20490;-65
2022/10/26 09:52:59;;;;;;;4.45;1.17;;;;;;;33.86;35.89;101222.78;4976642;28;20063;-66
2022/10/26 09:55:26;;;;;;;1.80;0.60;;;;;;;33.97;36.26;101230.03;4976516;28;20038;-65
2022/10/26 09:57:54;;;;;;;2.38;0.98;;;;;;;33.94;36.08;101224.19;4992958;28;20074;-63
2022/10/26 10:00:21;;;;;;;2.55;0.80;;;;;;;34.12;35.09;101223.69;4992869;28;20053;-65
2022/10/26 10:02:56;;;;;;;2.55;0.80;;;;;;;34.26;34.54;101237.91;4992839;28;20038;-65
2022/10/26 10:05:26;;;;;;;3.20;1.00;;;;;;;34.21;35.10;101235.13;4976584;28;20080;-64
2022/10/26 10:08:17;;;;;;;3.92;0.98;;;;;;;34.33;35.00;101235.69;4994427;28;20030;-64
2022/10/26 10:11:04;;;;;;;5.95;1.00;;;;;;;34.68;34.96;101241.28;4992825;28;20041;-65
2022/10/26 10:13:32;;;;;;;2.60;0.98;;;;;;;34.89;34.20;101240.19;4973429;28;20122;-63
2022/10/26 10:16:17;;;;;;;3.25;0.80;;;;;;;35.12;33.88;101235.16;4969450;28;20038;-65
2022/10/26 10:18:52;;;;;;;1.65;1.10;;;;;;;35.17;33.85;101237.94;4975826;28;20512;-64
2022/10/26 10:21:17;;;;;;;4.65;0.98;;;;;;;35.32;34.13;101246.22;4973233;28;20053;-64
2022/10/26 10:23:53;;;;;;;3.47;0.57;;;;;;;35.53;33.93;101242.28;4962648;28;20503;-63
2022/10/26 10:26:18;;;;;;;5.15;1.40;;;;;;;35.58;33.52;101254.28;4976654;28;20030;-64
2022/10/26 10:28:55;;;;;;;1.20;0.98;;;;;;;35.61;33.68;101252.88;4992899;28;20033;-66
2022/10/26 10:31:26;;;;;;;2.63;0.50;;;;;;;35.71;33.42;101258.38;4992454;28;20042;-66
2022/10/26 10:33:53;;;;;;;1.80;0.70;;;;;;;35.76;33.61;101263.97;4976223;28;20040;-65
2022/10/26 10:36:20;;;;;;;5.68;0.77;;;;;;;35.72;33.39;101260.06;4976129;28;20069;-65
2022/10/26 10:38:47;;;;;;;2.33;0.77;;;;;;;35.57;33.45;101268.47;4992203;28;20614;-66
2022/10/26 10:41:18;;;;;;;1.20;0.43;;;;;;;35.51;33.43;101275.19;4992304;28;20077;-66
2022/10/26 10:44:19;;;;;;;1.27;0.60;;;;;;;35.56;33.69;101280.78;4993757;28;20101;-65
2022/10/26 10:46:45;;;;;;;2.80;0.80;;;;;;;35.57;33.45;101291.63;4993613;28;20053;-65
2022/10/26 10:49:19;;;;;;;2.97;0.52;;;;;;;35.36;33.41;101294.72;4976099;28;20572;-65
2022/10/26 10:51:45;;;;;;;4.40;0.88;;;;;;;35.30;33.25;101293.91;4992273;28;20042;-66
2022/10/26 10:54:21;;;;;;;3.15;0.60;;;;;;;35.23;32.87;101285.03;4992223;28;20496;-65
2022/10/26 10:56:50;;;;;;;3.05;0.50;;;;;;;35.06;33.26;101295.59;4992126;28;20042;-65
2022/10/26 10:59:42;;;;;;;1.88;0.40;;;;;;;34.89;33.70;101284.75;4992216;28;20567;-66
2022/10/26 11:02:11;;;;;;;0.93;0.68;;;;;;;34.99;33.81;101284.72;4993284;28;20034;-65
2022/10/26 11:04:57;;;;;;;2.83;0.80;;;;;;;35.15;33.24;101287.53;4994312;28;20035;-65
2022/10/26 11:07:24;;;;;;;2.10;0.85;;;;;;;35.05;33.90;101294.75;4997342;28;20118;-65
2022/10/26 11:09:51;;;;;;;1.83;0.47;;;;;;;34.88;33.83;101291.41;4997329;28;20038;-66
2022/10/26 11:12:27;;;;;;;3.42;0.55;;;;;;;34.91;32.99;101301.16;4979802;28;20088;-65
2022/10/26 11:15:00;;;;;;;6.22;1.00;;;;;;;34.86;33.06;101299.22;4996061;28;20456;-65
2022/10/26 11:17:49;;;;;;;1.27;0.65;;;;;;;34.88;33.06;101298.94;4995986;28;20040;-65
2022/10/26 11:20:18;;;;;;;2.88;0.60;;;;;;;34.80;33.33;101305.06;4995959;28;20062;-65
2022/10/26 11:23:12;;;;;;;2.35;0.60;;;;;;;34.76;33.84;101313.13;4996268;28;20029;-65
2022/10/26 11:25:44;;;;;;;0.63;0.60;;;;;;;34.63;33.81;101316.47;4975510;28;20052;-64
2022/10/26 11:28:15;;;;;;;3.90;0.68;;;;;;;34.53;33.60;101325.59;4979433;28;20038;-65
2022/10/26 11:30:46;;;;;;;3.47;0.55;;;;;;;34.34;33.64;101316.09;4995698;28;20026;-66
2022/10/26 11:33:19;;;;;;;4.47;0.98;;;;;;;34.12;33.74;101323.00;4995654;28;20049;-66
2022/10/26 11:36:01;;;;;;;3.63;0.75;;;;;;;34.03;34.35;101321.84;4995606;28;20118;-66